This is the latest recevied weather packets stored in our database for station/object IK1YPD-13. If no packets are shown the sender has not sent any weather packets the latest 10 day(s).
| Time | Temp. | Humidity | Pressure | Rain* | Wind** | Luminosity | Snow |
|---|---|---|---|---|---|---|---|
| 1787679434 | 26.11° C | 69% | 1009 hPa | - | - | - | - |
| 1787678534 | 26.11° C | 68% | 1009 hPa | - | - | - | - |
| 1787677634 | 26.11° C | 66% | 1009 hPa | - | - | - | - |
| 1787676734 | 26.11° C | 64% | 1009 hPa | - | - | - | - |
| 1787675834 | 26.11° C | 64% | 1008 hPa | - | - | - | - |
| 1787674934 | 26.67° C | 63% | 1008 hPa | - | - | - | - |
| 1787674034 | 26.67° C | 62% | 1008 hPa | - | - | - | - |
| 1787673134 | 27.22° C | 61% | 1008 hPa | - | - | - | - |
| 1787672234 | 26.67° C | 61% | 1008 hPa | - | - | - | - |
| 1787671333 | 26.67° C | 61% | 1008 hPa | - | - | - | - |
| 1787670433 | 27.78° C | 58% | 1008 hPa | - | - | - | - |
| 1787669533 | 27.78° C | 56% | 1008 hPa | - | - | - | - |
| 1787668633 | 27.78° C | 57% | 1008 hPa | - | - | - | - |
| 1787667733 | 27.78° C | 56% | 1008 hPa | - | - | - | - |
| 1787666833 | 27.78° C | 53% | 1008 hPa | - | - | - | - |
| 1787665933 | 27.22° C | 56% | 1008 hPa | - | - | - | - |
| 1787665033 | 27.22° C | 57% | 1008 hPa | - | - | - | - |
| 1787664133 | 27.22° C | 62% | 1007 hPa | - | - | - | - |
| 1787663233 | 26.11° C | 66% | 1008 hPa | - | - | - | - |
| 1787662332 | 27.22° C | 62% | 1008 hPa | - | - | - | - |
| 1787661432 | 27.22° C | 57% | 1008 hPa | - | - | - | - |
| 1787660532 | 27.78° C | 55% | 1007 hPa | - | - | - | - |
| 1787659632 | 27.22° C | 56% | 1007 hPa | - | - | - | - |
| 1787658732 | 27.22° C | 56% | 1008 hPa | - | - | - | - |
| 1787657832 | 27.22° C | 58% | 1008 hPa | - | - | - | - |
* Rain since midnight (hover to see other rain measurements)
** Current wind speed in m/s (hover to see current wind gust speed)